sensor_id;sensor_type;location;lat;lon;timestamp;P1;durP1;ratioP1;P2;durP2;ratioP2
35699;SDS011;21818;51.078;12.108;2024-01-11T00:00:13;6.97;;;4.10;;
35699;SDS011;21818;51.078;12.108;2024-01-11T00:02:39;7.85;;;3.83;;
35699;SDS011;21818;51.078;12.108;2024-01-11T00:05:05;6.88;;;3.40;;
35699;SDS011;21818;51.078;12.108;2024-01-11T00:07:31;8.32;;;3.65;;
35699;SDS011;21818;51.078;12.108;2024-01-11T00:09:57;9.20;;;4.10;;
35699;SDS011;21818;51.078;12.108;2024-01-11T00:12:22;10.40;;;5.25;;
35699;SDS011;21818;51.078;12.108;2024-01-11T00:14:48;7.25;;;4.20;;
35699;SDS011;21818;51.078;12.108;2024-01-11T00:17:13;7.78;;;3.88;;
35699;SDS011;21818;51.078;12.108;2024-01-11T00:19:40;9.10;;;4.53;;
35699;SDS011;21818;51.078;12.108;2024-01-11T00:22:06;8.73;;;4.53;;
35699;SDS011;21818;51.078;12.108;2024-01-11T00:24:31;7.13;;;3.75;;
35699;SDS011;21818;51.078;12.108;2024-01-11T00:26:57;14.63;;;8.00;;
35699;SDS011;21818;51.078;12.108;2024-01-11T00:29:23;10.07;;;4.80;;
35699;SDS011;21818;51.078;12.108;2024-01-11T00:31:48;8.38;;;4.20;;
35699;SDS011;21818;51.078;12.108;2024-01-11T00:34:14;8.77;;;5.00;;
35699;SDS011;21818;51.078;12.108;2024-01-11T00:36:39;9.45;;;5.25;;
35699;SDS011;21818;51.078;12.108;2024-01-11T00:39:05;11.48;;;5.35;;
35699;SDS011;21818;51.078;12.108;2024-01-11T00:41:30;12.20;;;5.78;;
35699;SDS011;21818;51.078;12.108;2024-01-11T00:43:56;12.88;;;6.90;;
35699;SDS011;21818;51.078;12.108;2024-01-11T00:46:21;11.15;;;5.55;;
35699;SDS011;21818;51.078;12.108;2024-01-11T00:48:47;10.80;;;6.03;;
35699;SDS011;21818;51.078;12.108;2024-01-11T00:51:12;14.52;;;7.50;;
35699;SDS011;21818;51.078;12.108;2024-01-11T00:53:38;9.85;;;5.10;;
35699;SDS011;21818;51.078;12.108;2024-01-11T00:56:04;12.05;;;6.78;;
35699;SDS011;21818;51.078;12.108;2024-01-11T00:58:29;16.05;;;8.02;;
35699;SDS011;21818;51.078;12.108;2024-01-11T01:00:55;12.80;;;5.82;;
35699;SDS011;21818;51.078;12.108;2024-01-11T01:03:21;13.05;;;6.30;;
35699;SDS011;21818;51.078;12.108;2024-01-11T01:05:46;16.08;;;7.72;;
35699;SDS011;21818;51.078;12.108;2024-01-11T01:08:12;18.23;;;8.98;;
35699;SDS011;21818;51.078;12.108;2024-01-11T01:10:38;15.05;;;7.75;;
35699;SDS011;21818;51.078;12.108;2024-01-11T01:13:04;19.95;;;9.73;;
35699;SDS011;21818;51.078;12.108;2024-01-11T01:15:29;16.08;;;8.52;;
35699;SDS011;21818;51.078;12.108;2024-01-11T01:17:55;15.68;;;7.72;;
35699;SDS011;21818;51.078;12.108;2024-01-11T01:20:20;13.18;;;6.35;;
35699;SDS011;21818;51.078;12.108;2024-01-11T01:22:47;8.85;;;4.97;;
35699;SDS011;21818;51.078;12.108;2024-01-11T01:25:12;10.23;;;5.00;;
35699;SDS011;21818;51.078;12.108;2024-01-11T01:27:38;11.75;;;6.45;;
35699;SDS011;21818;51.078;12.108;2024-01-11T01:30:04;11.63;;;5.35;;
35699;SDS011;21818;51.078;12.108;2024-01-11T01:32:30;10.93;;;5.13;;
35699;SDS011;21818;51.078;12.108;2024-01-11T01:34:55;11.63;;;5.32;;
35699;SDS011;21818;51.078;12.108;2024-01-11T01:37:21;10.38;;;5.95;;
35699;SDS011;21818;51.078;12.108;2024-01-11T01:39:46;9.90;;;5.22;;
35699;SDS011;21818;51.078;12.108;2024-01-11T01:42:12;10.75;;;5.30;;
35699;SDS011;21818;51.078;12.108;2024-01-11T01:44:38;12.35;;;5.75;;
35699;SDS011;21818;51.078;12.108;2024-01-11T01:47:05;10.48;;;5.20;;
35699;SDS011;21818;51.078;12.108;2024-01-11T01:49:32;9.40;;;5.38;;
35699;SDS011;21818;51.078;12.108;2024-01-11T01:51:58;9.73;;;5.03;;
35699;SDS011;21818;51.078;12.108;2024-01-11T01:54:24;11.70;;;5.80;;
35699;SDS011;21818;51.078;12.108;2024-01-11T01:56:50;10.35;;;5.40;;
35699;SDS011;21818;51.078;12.108;2024-01-11T01:59:17;10.68;;;5.10;;
35699;SDS011;21818;51.078;12.108;2024-01-11T02:01:43;8.15;;;4.25;;
35699;SDS011;21818;51.078;12.108;2024-01-11T02:04:09;9.32;;;5.18;;
35699;SDS011;21818;51.078;12.108;2024-01-11T02:06:35;10.60;;;4.90;;
35699;SDS011;21818;51.078;12.108;2024-01-11T02:09:02;11.10;;;5.32;;
35699;SDS011;21818;51.078;12.108;2024-01-11T02:11:28;11.75;;;5.75;;
35699;SDS011;21818;51.078;12.108;2024-01-11T02:13:55;10.85;;;5.13;;
35699;SDS011;21818;51.078;12.108;2024-01-11T02:16:20;13.27;;;6.57;;
35699;SDS011;21818;51.078;12.108;2024-01-11T02:18:46;11.20;;;5.32;;
35699;SDS011;21818;51.078;12.108;2024-01-11T02:21:13;9.98;;;5.00;;
35699;SDS011;21818;51.078;12.108;2024-01-11T02:23:44;10.88;;;5.13;;
35699;SDS011;21818;51.078;12.108;2024-01-11T02:26:17;11.40;;;5.20;;
35699;SDS011;21818;51.078;12.108;2024-01-11T02:28:43;8.68;;;4.57;;
35699;SDS011;21818;51.078;12.108;2024-01-11T02:31:12;11.52;;;4.93;;
35699;SDS011;21818;51.078;12.108;2024-01-11T02:33:39;9.82;;;4.90;;
35699;SDS011;21818;51.078;12.108;2024-01-11T02:36:05;9.27;;;4.68;;
35699;SDS011;21818;51.078;12.108;2024-01-11T02:38:31;10.07;;;4.70;;
35699;SDS011;21818;51.078;12.108;2024-01-11T02:40:59;9.98;;;5.00;;
35699;SDS011;21818;51.078;12.108;2024-01-11T02:43:25;8.65;;;4.75;;
35699;SDS011;21818;51.078;12.108;2024-01-11T02:45:53;10.30;;;5.45;;
35699;SDS011;21818;51.078;12.108;2024-01-11T02:48:20;9.13;;;4.68;;
35699;SDS011;21818;51.078;12.108;2024-01-11T02:50:46;9.10;;;4.50;;
35699;SDS011;21818;51.078;12.108;2024-01-11T02:53:13;9.52;;;4.70;;
35699;SDS011;21818;51.078;12.108;2024-01-11T02:55:38;9.65;;;5.10;;
35699;SDS011;21818;51.078;12.108;2024-01-11T02:58:04;10.98;;;5.82;;
35699;SDS011;21818;51.078;12.108;2024-01-11T03:00:30;9.32;;;4.80;;
35699;SDS011;21818;51.078;12.108;2024-01-11T03:02:55;8.93;;;4.70;;
35699;SDS011;21818;51.078;12.108;2024-01-11T03:05:21;10.80;;;5.63;;
35699;SDS011;21818;51.078;12.108;2024-01-11T03:07:46;9.07;;;4.60;;
35699;SDS011;21818;51.078;12.108;2024-01-11T03:10:12;9.13;;;5.00;;
35699;SDS011;21818;51.078;12.108;2024-01-11T03:12:39;8.85;;;4.47;;
35699;SDS011;21818;51.078;12.108;2024-01-11T03:15:05;10.15;;;5.28;;
35699;SDS011;21818;51.078;12.108;2024-01-11T03:17:31;10.48;;;4.50;;
35699;SDS011;21818;51.078;12.108;2024-01-11T03:19:58;8.43;;;4.53;;
35699;SDS011;21818;51.078;12.108;2024-01-11T03:22:24;9.68;;;4.63;;
35699;SDS011;21818;51.078;12.108;2024-01-11T03:24:50;8.90;;;5.47;;
35699;SDS011;21818;51.078;12.108;2024-01-11T03:27:15;9.27;;;4.70;;
35699;SDS011;21818;51.078;12.108;2024-01-11T03:29:41;10.55;;;4.82;;
35699;SDS011;21818;51.078;12.108;2024-01-11T03:32:06;10.82;;;5.68;;
35699;SDS011;21818;51.078;12.108;2024-01-11T03:34:32;10.55;;;4.88;;
35699;SDS011;21818;51.078;12.108;2024-01-11T03:36:58;10.52;;;5.57;;
35699;SDS011;21818;51.078;12.108;2024-01-11T03:39:24;12.00;;;5.60;;
35699;SDS011;21818;51.078;12.108;2024-01-11T03:41:50;8.77;;;4.95;;
35699;SDS011;21818;51.078;12.108;2024-01-11T03:44:16;11.00;;;5.60;;
35699;SDS011;21818;51.078;12.108;2024-01-11T03:46:41;9.85;;;5.50;;
35699;SDS011;21818;51.078;12.108;2024-01-11T03:49:07;11.80;;;5.28;;
35699;SDS011;21818;51.078;12.108;2024-01-11T03:51:33;11.77;;;5.80;;
35699;SDS011;21818;51.078;12.108;2024-01-11T03:53:59;12.32;;;5.93;;
35699;SDS011;21818;51.078;12.108;2024-01-11T03:56:25;14.77;;;7.20;;
35699;SDS011;21818;51.078;12.108;2024-01-11T03:58:50;17.48;;;8.05;;
35699;SDS011;21818;51.078;12.108;2024-01-11T04:01:16;16.83;;;7.88;;
35699;SDS011;21818;51.078;12.108;2024-01-11T04:03:41;11.43;;;5.63;;
35699;SDS011;21818;51.078;12.108;2024-01-11T04:06:07;13.25;;;6.65;;
35699;SDS011;21818;51.078;12.108;2024-01-11T04:08:33;16.65;;;8.60;;
35699;SDS011;21818;51.078;12.108;2024-01-11T04:11:01;17.10;;;8.27;;
35699;SDS011;21818;51.078;12.108;2024-01-11T04:13:28;20.10;;;9.45;;
35699;SDS011;21818;51.078;12.108;2024-01-11T04:15:53;19.08;;;9.35;;
35699;SDS011;21818;51.078;12.108;2024-01-11T04:18:19;15.82;;;8.30;;
35699;SDS011;21818;51.078;12.108;2024-01-11T04:20:44;17.10;;;8.95;;
35699;SDS011;21818;51.078;12.108;2024-01-11T04:23:10;16.30;;;8.60;;
35699;SDS011;21818;51.078;12.108;2024-01-11T04:25:35;18.10;;;9.55;;
35699;SDS011;21818;51.078;12.108;2024-01-11T04:28:01;19.25;;;9.40;;
35699;SDS011;21818;51.078;12.108;2024-01-11T04:30:26;18.55;;;9.75;;
35699;SDS011;21818;51.078;12.108;2024-01-11T04:32:52;14.90;;;7.60;;
35699;SDS011;21818;51.078;12.108;2024-01-11T04:35:17;14.27;;;7.18;;
35699;SDS011;21818;51.078;12.108;2024-01-11T04:37:43;12.10;;;6.90;;
35699;SDS011;21818;51.078;12.108;2024-01-11T04:40:08;10.93;;;6.18;;
35699;SDS011;21818;51.078;12.108;2024-01-11T04:42:34;9.20;;;5.65;;
35699;SDS011;21818;51.078;12.108;2024-01-11T04:45:00;12.65;;;6.45;;
35699;SDS011;21818;51.078;12.108;2024-01-11T04:47:25;12.55;;;5.75;;
35699;SDS011;21818;51.078;12.108;2024-01-11T04:49:51;10.10;;;5.47;;
35699;SDS011;21818;51.078;12.108;2024-01-11T04:52:16;12.20;;;6.10;;
35699;SDS011;21818;51.078;12.108;2024-01-11T04:54:42;11.20;;;5.72;;
35699;SDS011;21818;51.078;12.108;2024-01-11T04:57:08;10.70;;;5.88;;
35699;SDS011;21818;51.078;12.108;2024-01-11T04:59:33;10.93;;;6.20;;
35699;SDS011;21818;51.078;12.108;2024-01-11T05:01:59;11.80;;;5.97;;
35699;SDS011;21818;51.078;12.108;2024-01-11T05:04:24;10.13;;;5.20;;
35699;SDS011;21818;51.078;12.108;2024-01-11T05:06:51;11.25;;;5.68;;
35699;SDS011;21818;51.078;12.108;2024-01-11T05:09:16;11.60;;;6.03;;
35699;SDS011;21818;51.078;12.108;2024-01-11T05:11:42;11.30;;;5.53;;
35699;SDS011;21818;51.078;12.108;2024-01-11T05:14:07;11.63;;;6.25;;
35699;SDS011;21818;51.078;12.108;2024-01-11T05:16:33;9.30;;;5.10;;
35699;SDS011;21818;51.078;12.108;2024-01-11T05:19:00;12.95;;;6.95;;
35699;SDS011;21818;51.078;12.108;2024-01-11T05:21:26;10.73;;;6.05;;
35699;SDS011;21818;51.078;12.108;2024-01-11T05:23:51;12.45;;;6.05;;
35699;SDS011;21818;51.078;12.108;2024-01-11T05:26:18;19.42;;;9.82;;
35699;SDS011;21818;51.078;12.108;2024-01-11T05:28:44;15.07;;;8.38;;
35699;SDS011;21818;51.078;12.108;2024-01-11T05:31:10;17.88;;;8.65;;
35699;SDS011;21818;51.078;12.108;2024-01-11T05:33:37;18.00;;;8.95;;
35699;SDS011;21818;51.078;12.108;2024-01-11T05:36:04;18.08;;;9.68;;
35699;SDS011;21818;51.078;12.108;2024-01-11T05:38:30;15.73;;;8.90;;
35699;SDS011;21818;51.078;12.108;2024-01-11T05:40:55;19.85;;;10.35;;
35699;SDS011;21818;51.078;12.108;2024-01-11T05:43:21;18.15;;;9.80;;
35699;SDS011;21818;51.078;12.108;2024-01-11T05:45:48;23.38;;;11.00;;
35699;SDS011;21818;51.078;12.108;2024-01-11T05:48:15;23.90;;;11.57;;
35699;SDS011;21818;51.078;12.108;2024-01-11T05:50:41;23.33;;;11.73;;
35699;SDS011;21818;51.078;12.108;2024-01-11T05:53:07;19.70;;;9.63;;
35699;SDS011;21818;51.078;12.108;2024-01-11T05:55:33;21.88;;;9.63;;
35699;SDS011;21818;51.078;12.108;2024-01-11T05:57:59;21.60;;;10.35;;
35699;SDS011;21818;51.078;12.108;2024-01-11T06:00:25;17.55;;;9.35;;
35699;SDS011;21818;51.078;12.108;2024-01-11T06:02:50;17.60;;;9.25;;
35699;SDS011;21818;51.078;12.108;2024-01-11T06:05:16;13.15;;;6.22;;
35699;SDS011;21818;51.078;12.108;2024-01-11T06:07:41;14.50;;;6.18;;
35699;SDS011;21818;51.078;12.108;2024-01-11T06:10:07;16.15;;;8.73;;
35699;SDS011;21818;51.078;12.108;2024-01-11T06:12:34;12.38;;;6.50;;
35699;SDS011;21818;51.078;12.108;2024-01-11T06:15:00;17.63;;;8.60;;
35699;SDS011;21818;51.078;12.108;2024-01-11T06:17:26;19.85;;;10.00;;
35699;SDS011;21818;51.078;12.108;2024-01-11T06:19:52;16.17;;;8.82;;
35699;SDS011;21818;51.078;12.108;2024-01-11T06:22:17;13.27;;;7.03;;
35699;SDS011;21818;51.078;12.108;2024-01-11T06:24:43;17.23;;;8.15;;
35699;SDS011;21818;51.078;12.108;2024-01-11T06:27:09;15.15;;;7.43;;
35699;SDS011;21818;51.078;12.108;2024-01-11T06:29:34;16.77;;;7.45;;
35699;SDS011;21818;51.078;12.108;2024-01-11T06:32:00;13.30;;;6.82;;
35699;SDS011;21818;51.078;12.108;2024-01-11T06:34:26;13.32;;;7.13;;
35699;SDS011;21818;51.078;12.108;2024-01-11T06:36:51;12.20;;;5.97;;
35699;SDS011;21818;51.078;12.108;2024-01-11T06:39:18;18.63;;;8.75;;
35699;SDS011;21818;51.078;12.108;2024-01-11T06:41:43;16.42;;;8.10;;
35699;SDS011;21818;51.078;12.108;2024-01-11T06:44:09;16.92;;;9.02;;
35699;SDS011;21818;51.078;12.108;2024-01-11T06:46:35;16.80;;;9.23;;
35699;SDS011;21818;51.078;12.108;2024-01-11T06:49:01;18.98;;;9.43;;
35699;SDS011;21818;51.078;12.108;2024-01-11T06:51:27;17.38;;;9.15;;
35699;SDS011;21818;51.078;12.108;2024-01-11T06:53:52;19.23;;;8.90;;
35699;SDS011;21818;51.078;12.108;2024-01-11T06:56:18;18.65;;;10.00;;
35699;SDS011;21818;51.078;12.108;2024-01-11T06:58:46;15.70;;;8.82;;
35699;SDS011;21818;51.078;12.108;2024-01-11T07:01:12;22.98;;;11.32;;
35699;SDS011;21818;51.078;12.108;2024-01-11T07:03:38;21.45;;;10.48;;
35699;SDS011;21818;51.078;12.108;2024-01-11T07:06:04;21.20;;;10.02;;
35699;SDS011;21818;51.078;12.108;2024-01-11T07:08:31;20.55;;;10.27;;
35699;SDS011;21818;51.078;12.108;2024-01-11T07:10:57;23.92;;;10.95;;
35699;SDS011;21818;51.078;12.108;2024-01-11T07:13:23;21.23;;;11.07;;
35699;SDS011;21818;51.078;12.108;2024-01-11T07:15:49;22.70;;;11.15;;
35699;SDS011;21818;51.078;12.108;2024-01-11T07:18:16;21.00;;;11.52;;
35699;SDS011;21818;51.078;12.108;2024-01-11T07:20:42;23.52;;;11.88;;
35699;SDS011;21818;51.078;12.108;2024-01-11T07:23:08;26.17;;;13.02;;
35699;SDS011;21818;51.078;12.108;2024-01-11T07:25:34;25.58;;;12.10;;
35699;SDS011;21818;51.078;12.108;2024-01-11T07:28:00;28.40;;;14.35;;
35699;SDS011;21818;51.078;12.108;2024-01-11T07:30:26;30.17;;;13.52;;
35699;SDS011;21818;51.078;12.108;2024-01-11T07:32:51;25.50;;;11.77;;
35699;SDS011;21818;51.078;12.108;2024-01-11T07:35:17;30.80;;;14.68;;
35699;SDS011;21818;51.078;12.108;2024-01-11T07:37:42;26.35;;;13.23;;
35699;SDS011;21818;51.078;12.108;2024-01-11T07:40:08;25.25;;;12.32;;
35699;SDS011;21818;51.078;12.108;2024-01-11T07:42:39;25.05;;;12.85;;
35699;SDS011;21818;51.078;12.108;2024-01-11T07:45:06;30.90;;;13.70;;
35699;SDS011;21818;51.078;12.108;2024-01-11T07:47:32;25.15;;;12.85;;
35699;SDS011;21818;51.078;12.108;2024-01-11T07:49:58;25.38;;;12.70;;
35699;SDS011;21818;51.078;12.108;2024-01-11T07:52:24;24.92;;;12.73;;
35699;SDS011;21818;51.078;12.108;2024-01-11T07:54:49;27.33;;;13.40;;
35699;SDS011;21818;51.078;12.108;2024-01-11T07:57:15;26.30;;;12.38;;
35699;SDS011;21818;51.078;12.108;2024-01-11T07:59:40;25.85;;;12.13;;
35699;SDS011;21818;51.078;12.108;2024-01-11T08:02:06;38.97;;;14.07;;
35699;SDS011;21818;51.078;12.108;2024-01-11T08:04:32;28.52;;;11.70;;
35699;SDS011;21818;51.078;12.108;2024-01-11T08:06:58;24.48;;;11.50;;
35699;SDS011;21818;51.078;12.108;2024-01-11T08:09:27;23.48;;;11.95;;
35699;SDS011;21818;51.078;12.108;2024-01-11T08:11:53;32.40;;;13.63;;
35699;SDS011;21818;51.078;12.108;2024-01-11T08:14:19;25.63;;;11.82;;
35699;SDS011;21818;51.078;12.108;2024-01-11T08:16:45;23.35;;;12.10;;
35699;SDS011;21818;51.078;12.108;2024-01-11T08:19:11;28.73;;;14.15;;
35699;SDS011;21818;51.078;12.108;2024-01-11T08:21:38;29.75;;;14.15;;
35699;SDS011;21818;51.078;12.108;2024-01-11T08:24:04;30.83;;;16.30;;
35699;SDS011;21818;51.078;12.108;2024-01-11T08:26:30;28.27;;;14.55;;
35699;SDS011;21818;51.078;12.108;2024-01-11T08:28:56;27.90;;;13.57;;
35699;SDS011;21818;51.078;12.108;2024-01-11T08:31:21;25.67;;;13.20;;
35699;SDS011;21818;51.078;12.108;2024-01-11T08:33:47;26.83;;;12.88;;
35699;SDS011;21818;51.078;12.108;2024-01-11T08:36:13;27.77;;;13.45;;
35699;SDS011;21818;51.078;12.108;2024-01-11T08:38:39;28.80;;;14.00;;
35699;SDS011;21818;51.078;12.108;2024-01-11T08:41:05;27.92;;;12.48;;
35699;SDS011;21818;51.078;12.108;2024-01-11T08:43:31;21.75;;;10.38;;
35699;SDS011;21818;51.078;12.108;2024-01-11T08:45:57;26.73;;;12.05;;
35699;SDS011;21818;51.078;12.108;2024-01-11T08:48:23;22.05;;;10.30;;
35699;SDS011;21818;51.078;12.108;2024-01-11T08:50:49;23.45;;;10.45;;
35699;SDS011;21818;51.078;12.108;2024-01-11T08:53:14;23.15;;;12.18;;
35699;SDS011;21818;51.078;12.108;2024-01-11T08:55:41;26.65;;;13.25;;
35699;SDS011;21818;51.078;12.108;2024-01-11T08:58:07;19.45;;;9.90;;
35699;SDS011;21818;51.078;12.108;2024-01-11T09:00:33;18.88;;;9.35;;
35699;SDS011;21818;51.078;12.108;2024-01-11T09:02:58;17.80;;;9.70;;
35699;SDS011;21818;51.078;12.108;2024-01-11T09:05:24;23.85;;;11.50;;
35699;SDS011;21818;51.078;12.108;2024-01-11T09:07:50;27.90;;;14.02;;
35699;SDS011;21818;51.078;12.108;2024-01-11T09:10:15;28.70;;;13.60;;
35699;SDS011;21818;51.078;12.108;2024-01-11T09:12:41;26.55;;;13.50;;
35699;SDS011;21818;51.078;12.108;2024-01-11T09:15:07;20.45;;;10.40;;
35699;SDS011;21818;51.078;12.108;2024-01-11T09:17:33;25.80;;;12.70;;
35699;SDS011;21818;51.078;12.108;2024-01-11T09:19:58;25.70;;;14.60;;
35699;SDS011;21818;51.078;12.108;2024-01-11T09:22:24;32.60;;;16.45;;
35699;SDS011;21818;51.078;12.108;2024-01-11T09:24:50;22.13;;;11.35;;
35699;SDS011;21818;51.078;12.108;2024-01-11T09:27:15;18.95;;;9.05;;
35699;SDS011;21818;51.078;12.108;2024-01-11T09:29:44;24.50;;;13.00;;
35699;SDS011;21818;51.078;12.108;2024-01-11T09:32:10;26.85;;;13.15;;
35699;SDS011;21818;51.078;12.108;2024-01-11T09:34:37;26.20;;;13.07;;
35699;SDS011;21818;51.078;12.108;2024-01-11T09:37:02;25.98;;;13.43;;
35699;SDS011;21818;51.078;12.108;2024-01-11T09:39:28;28.02;;;14.07;;
35699;SDS011;21818;51.078;12.108;2024-01-11T09:42:07;27.75;;;13.57;;
35699;SDS011;21818;51.078;12.108;2024-01-11T09:44:34;25.10;;;12.35;;
35699;SDS011;21818;51.078;12.108;2024-01-11T09:47:02;29.63;;;13.98;;
35699;SDS011;21818;51.078;12.108;2024-01-11T09:49:30;24.02;;;12.98;;
35699;SDS011;21818;51.078;12.108;2024-01-11T09:51:57;24.48;;;11.98;;
35699;SDS011;21818;51.078;12.108;2024-01-11T09:54:25;21.80;;;11.93;;
35699;SDS011;21818;51.078;12.108;2024-01-11T09:56:51;19.30;;;10.32;;
35699;SDS011;21818;51.078;12.108;2024-01-11T09:59:20;18.77;;;9.20;;
35699;SDS011;21818;51.078;12.108;2024-01-11T10:01:49;21.85;;;10.93;;
35699;SDS011;21818;51.078;12.108;2024-01-11T10:04:15;19.88;;;10.10;;
35699;SDS011;21818;51.078;12.108;2024-01-11T10:06:41;23.70;;;12.20;;
35699;SDS011;21818;51.078;12.108;2024-01-11T10:09:07;21.52;;;10.50;;
35699;SDS011;21818;51.078;12.108;2024-01-11T10:11:33;22.15;;;10.95;;
35699;SDS011;21818;51.078;12.108;2024-01-11T10:14:02;21.60;;;9.02;;
35699;SDS011;21818;51.078;12.108;2024-01-11T10:16:30;26.00;;;11.27;;
35699;SDS011;21818;51.078;12.108;2024-01-11T10:18:56;30.30;;;14.10;;
35699;SDS011;21818;51.078;12.108;2024-01-11T10:21:22;22.75;;;11.95;;
35699;SDS011;21818;51.078;12.108;2024-01-11T10:23:49;25.42;;;12.80;;
35699;SDS011;21818;51.078;12.108;2024-01-11T10:26:15;24.75;;;11.85;;
35699;SDS011;21818;51.078;12.108;2024-01-11T10:28:44;27.85;;;14.20;;
35699;SDS011;21818;51.078;12.108;2024-01-11T10:31:11;29.88;;;14.20;;
35699;SDS011;21818;51.078;12.108;2024-01-11T10:33:37;33.55;;;15.45;;
35699;SDS011;21818;51.078;12.108;2024-01-11T10:36:03;25.48;;;12.63;;
35699;SDS011;21818;51.078;12.108;2024-01-11T10:38:32;26.02;;;12.80;;
35699;SDS011;21818;51.078;12.108;2024-01-11T10:41:00;30.38;;;13.70;;
35699;SDS011;21818;51.078;12.108;2024-01-11T10:43:31;28.70;;;13.52;;
35699;SDS011;21818;51.078;12.108;2024-01-11T10:45:59;25.00;;;12.43;;
35699;SDS011;21818;51.078;12.108;2024-01-11T10:48:27;27.25;;;13.63;;
35699;SDS011;21818;51.078;12.108;2024-01-11T10:50:57;23.75;;;11.48;;
35699;SDS011;21818;51.078;12.108;2024-01-11T10:53:31;20.48;;;11.65;;
35699;SDS011;21818;51.078;12.108;2024-01-11T10:56:06;24.30;;;12.85;;
35699;SDS011;21818;51.078;12.108;2024-01-11T10:58:33;24.75;;;12.02;;
35699;SDS011;21818;51.078;12.108;2024-01-11T11:01:03;20.40;;;10.27;;
35699;SDS011;21818;51.078;12.108;2024-01-11T11:03:30;27.95;;;14.23;;
35699;SDS011;21818;51.078;12.108;2024-01-11T11:05:56;24.80;;;14.25;;
35699;SDS011;21818;51.078;12.108;2024-01-11T11:08:23;28.20;;;13.70;;
35699;SDS011;21818;51.078;12.108;2024-01-11T11:11:01;29.17;;;14.35;;
35699;SDS011;21818;51.078;12.108;2024-01-11T11:13:30;26.20;;;13.20;;
35699;SDS011;21818;51.078;12.108;2024-01-11T11:15:56;23.05;;;10.82;;
35699;SDS011;21818;51.078;12.108;2024-01-11T11:18:22;29.65;;;14.25;;
35699;SDS011;21818;51.078;12.108;2024-01-11T11:20:49;27.85;;;14.35;;
35699;SDS011;21818;51.078;12.108;2024-01-11T11:23:16;20.63;;;10.82;;
35699;SDS011;21818;51.078;12.108;2024-01-11T11:25:43;30.77;;;15.40;;
35699;SDS011;21818;51.078;12.108;2024-01-11T11:28:11;23.95;;;11.77;;
35699;SDS011;21818;51.078;12.108;2024-01-11T11:30:38;28.13;;;14.57;;
35699;SDS011;21818;51.078;12.108;2024-01-11T11:33:09;26.20;;;13.93;;
35699;SDS011;21818;51.078;12.108;2024-01-11T11:35:45;29.75;;;14.43;;
35699;SDS011;21818;51.078;12.108;2024-01-11T11:38:18;31.40;;;14.73;;
35699;SDS011;21818;51.078;12.108;2024-01-11T11:40:46;25.83;;;13.05;;
35699;SDS011;21818;51.078;12.108;2024-01-11T11:43:13;27.38;;;13.40;;
35699;SDS011;21818;51.078;12.108;2024-01-11T11:45:41;25.70;;;13.70;;
35699;SDS011;21818;51.078;12.108;2024-01-11T11:49:07;30.60;;;13.75;;
35699;SDS011;21818;51.078;12.108;2024-01-11T11:51:11;27.40;;;14.40;;
35699;SDS011;21818;51.078;12.108;2024-01-11T11:53:38;30.38;;;14.88;;
35699;SDS011;21818;51.078;12.108;2024-01-11T11:56:05;30.15;;;13.90;;
35699;SDS011;21818;51.078;12.108;2024-01-11T11:58:32;25.77;;;13.63;;
35699;SDS011;21818;51.078;12.108;2024-01-11T12:00:59;25.17;;;13.25;;
35699;SDS011;21818;51.078;12.108;2024-01-11T12:03:28;29.25;;;15.07;;
35699;SDS011;21818;51.078;12.108;2024-01-11T12:05:58;28.83;;;14.45;;
35699;SDS011;21818;51.078;12.108;2024-01-11T12:08:24;27.38;;;13.95;;
35699;SDS011;21818;51.078;12.108;2024-01-11T12:10:53;26.83;;;13.27;;
35699;SDS011;21818;51.078;12.108;2024-01-11T12:13:19;27.77;;;13.40;;
35699;SDS011;21818;51.078;12.108;2024-01-11T12:15:45;25.13;;;12.38;;
35699;SDS011;21818;51.078;12.108;2024-01-11T12:18:11;23.35;;;12.82;;
35699;SDS011;21818;51.078;12.108;2024-01-11T12:20:37;21.02;;;11.40;;
35699;SDS011;21818;51.078;12.108;2024-01-11T12:23:02;21.90;;;11.48;;
35699;SDS011;21818;51.078;12.108;2024-01-11T12:25:29;23.73;;;12.82;;
35699;SDS011;21818;51.078;12.108;2024-01-11T12:27:55;22.38;;;11.60;;
35699;SDS011;21818;51.078;12.108;2024-01-11T12:30:25;26.08;;;12.48;;
35699;SDS011;21818;51.078;12.108;2024-01-11T12:32:52;24.83;;;12.60;;
35699;SDS011;21818;51.078;12.108;2024-01-11T12:35:18;24.00;;;12.50;;
35699;SDS011;21818;51.078;12.108;2024-01-11T12:37:54;19.83;;;10.63;;
35699;SDS011;21818;51.078;12.108;2024-01-11T12:40:20;24.35;;;12.52;;
35699;SDS011;21818;51.078;12.108;2024-01-11T12:42:46;20.58;;;10.88;;
35699;SDS011;21818;51.078;12.108;2024-01-11T12:45:14;22.48;;;11.23;;
35699;SDS011;21818;51.078;12.108;2024-01-11T12:47:41;25.25;;;13.63;;
35699;SDS011;21818;51.078;12.108;2024-01-11T12:50:07;26.02;;;13.30;;
35699;SDS011;21818;51.078;12.108;2024-01-11T12:52:32;24.40;;;12.70;;
35699;SDS011;21818;51.078;12.108;2024-01-11T12:54:58;24.63;;;12.38;;
35699;SDS011;21818;51.078;12.108;2024-01-11T12:57:24;24.88;;;12.40;;
35699;SDS011;21818;51.078;12.108;2024-01-11T12:59:50;22.98;;;11.90;;
35699;SDS011;21818;51.078;12.108;2024-01-11T13:02:17;20.70;;;12.77;;
35699;SDS011;21818;51.078;12.108;2024-01-11T13:04:43;23.65;;;11.13;;
35699;SDS011;21818;51.078;12.108;2024-01-11T13:07:11;20.55;;;9.80;;
35699;SDS011;21818;51.078;12.108;2024-01-11T13:09:38;21.85;;;11.70;;
35699;SDS011;21818;51.078;12.108;2024-01-11T13:12:04;22.45;;;10.73;;
35699;SDS011;21818;51.078;12.108;2024-01-11T13:14:30;16.95;;;9.40;;
35699;SDS011;21818;51.078;12.108;2024-01-11T13:16:56;22.60;;;11.75;;
35699;SDS011;21818;51.078;12.108;2024-01-11T13:19:22;19.00;;;9.70;;
35699;SDS011;21818;51.078;12.108;2024-01-11T13:21:48;23.45;;;11.90;;
35699;SDS011;21818;51.078;12.108;2024-01-11T13:24:14;17.92;;;9.60;;
35699;SDS011;21818;51.078;12.108;2024-01-11T13:26:39;19.80;;;11.25;;
35699;SDS011;21818;51.078;12.108;2024-01-11T13:29:05;22.25;;;11.20;;
35699;SDS011;21818;51.078;12.108;2024-01-11T13:31:32;23.90;;;12.00;;
35699;SDS011;21818;51.078;12.108;2024-01-11T13:33:58;24.00;;;12.60;;
35699;SDS011;21818;51.078;12.108;2024-01-11T13:36:24;22.83;;;10.90;;
35699;SDS011;21818;51.078;12.108;2024-01-11T13:38:50;19.80;;;11.10;;
35699;SDS011;21818;51.078;12.108;2024-01-11T13:41:16;17.50;;;9.63;;
35699;SDS011;21818;51.078;12.108;2024-01-11T13:43:42;25.35;;;11.60;;
35699;SDS011;21818;51.078;12.108;2024-01-11T13:46:08;21.42;;;11.07;;
35699;SDS011;21818;51.078;12.108;2024-01-11T13:48:34;24.33;;;12.73;;
35699;SDS011;21818;51.078;12.108;2024-01-11T13:51:00;21.08;;;11.30;;
35699;SDS011;21818;51.078;12.108;2024-01-11T13:53:28;24.13;;;11.80;;
35699;SDS011;21818;51.078;12.108;2024-01-11T13:55:54;25.38;;;12.73;;
35699;SDS011;21818;51.078;12.108;2024-01-11T13:58:20;20.38;;;10.60;;
35699;SDS011;21818;51.078;12.108;2024-01-11T14:00:46;20.33;;;11.05;;
35699;SDS011;21818;51.078;12.108;2024-01-11T14:03:12;22.90;;;11.13;;
35699;SDS011;21818;51.078;12.108;2024-01-11T14:05:37;21.25;;;12.05;;
35699;SDS011;21818;51.078;12.108;2024-01-11T14:08:03;18.30;;;10.15;;
35699;SDS011;21818;51.078;12.108;2024-01-11T14:10:33;21.80;;;11.02;;